METAR Data
IDs: Format: Raw Decoded Include TAF

Data at: 0824 UTC 07 Apr 2020

KPGV 070815Z AUTO 00000KT 1/4SM FG OVC001 12/12 A3000 RMK AO2
KPGV 070755Z AUTO 00000KT 1 1/4SM BR OVC001 12/11 A3000 RMK AO2
KPGV 070735Z AUTO 00000KT 2SM BR OVC001 10/10 A3000 RMK AO2 VIS 3/4V5
KPGV 070715Z AUTO 00000KT 3/4SM BR BKN001 12/11 A3001 RMK AO2
KPGV 070655Z AUTO 00000KT 1/4SM FG VV002 11/11 A3002 RMK AO2
KPGV 070635Z AUTO 00000KT 1/4SM FG VV002 12/11 A3003 RMK AO2
KPGV 070615Z AUTO 00000KT 2 1/2SM BR CLR 12/12 A3003 RMK AO2 VIS 1/2V5
KPGV 070555Z AUTO 00000KT 1/4SM FG VV002 12/12 A3004 RMK AO2
KPGV 070535Z AUTO 00000KT 1/2SM FG BKN090 12/12 A3004 RMK AO2
KPGV 070515Z AUTO 00000KT 1 3/4SM BR VV007 12/12 A3004 RMK AO2
KPGV 070335Z AUTO 00000KT 10SM CLR 14/13 A3004 RMK AO2
KPGV 070315Z AUTO 00000KT 10SM CLR 15/13 A3004 RMK AO2
KPGV 070255Z AUTO 13003KT 10SM CLR 15/13 A3005 RMK AO2
KPGV 070235Z AUTO 13004KT 10SM SCT014 SCT075 15/13 A3006 RMK AO2
KPGV 070215Z AUTO 17005KT 10SM CLR 15/13 A3006 RMK AO2
KPGV 070155Z AUTO 14006KT 10SM CLR 15/13 A3005 RMK AO2
KPGV 070135Z AUTO 14006KT 10SM CLR 16/14 A3004 RMK AO2
KPGV 070115Z AUTO 15005KT 10SM CLR 16/15 A3003 RMK AO2
KPGV 070055Z AUTO 12005KT 10SM CLR 16/14 A3002 RMK AO2
KPGV 070035Z AUTO 09004KT 10SM CLR 16/14 A3001 RMK AO2
KPGV 070015Z AUTO 07005KT 10SM CLR 16/14 A3000 RMK AO2
KPGV 062355Z AUTO 07005KT 10SM CLR 17/15 A3000 RMK AO2
KPGV 062335Z AUTO 04007KT 10SM CLR 17/15 A3000 RMK AO2
KPGV 062315Z AUTO 06004KT 10SM CLR 17/15 A2999 RMK AO2
KPGV 062255Z AUTO 09003KT 10SM SCT002 SCT006 SCT010 17/15 A3000 RMK AO2 P0010
KPGV 062235Z AUTO 13003KT 7SM -RA BKN004 BKN010 17/15 A3002 RMK AO2 P0010
KPGV 062215Z AUTO 00000KT 5SM RA SCT004 BKN010 OVC055 17/14 A3003 RMK AO2 P0009
KPGV 062155Z AUTO 34016G28KT 10SM RA SCT003 SCT015 BKN036 18/13 A3003 RMK AO2 P0001
KPGV 062135Z AUTO 35004KT 10SM CLR 25/12 A2995 RMK AO2
KPGV 062115Z AUTO 00000KT 10SM CLR 26/11 A2995 RMK AO2
KPGV 062055Z AUTO 00000KT 10SM CLR 26/11 A2996 RMK AO2
KPGV 062035Z AUTO 30003KT 10SM CLR 27/12 A2996 RMK AO2
KPGV 062015Z AUTO 00000KT 10SM CLR 26/12 A2997 RMK AO2
KPGV 061955Z AUTO 21004KT 10SM CLR 26/12 A2997 RMK AO2
KPGV 061935Z AUTO 25005KT 10SM SCT060 26/12 A2999 RMK AO2
KPGV 061915Z AUTO 30004KT 10SM CLR 26/12 A3000 RMK AO2
KPGV 061855Z AUTO 22004KT 10SM CLR 26/12 A3000 RMK AO2
KPGV 061835Z AUTO 30004KT 10SM CLR 26/12 A3001 RMK AO2
KPGV 061815Z AUTO 28004KT 10SM CLR 26/13 A3002 RMK AO2
KPGV 061755Z AUTO 32003KT 10SM CLR 25/13 A3003 RMK AO2
KPGV 061735Z AUTO 22004KT 10SM CLR 25/12 A3004 RMK AO2
KPGV 061715Z AUTO 22006KT 10SM CLR 24/13 A3004 RMK AO2
KPGV 061655Z AUTO 26005KT 10SM CLR 24/13 A3005 RMK AO2
KPGV 061635Z AUTO 00000KT 10SM CLR 23/13 A3005 RMK AO2
KPGV 061615Z AUTO 31005KT 10SM CLR 23/13 A3006 RMK AO2
KPGV 061555Z AUTO 29005KT 10SM CLR 22/13 A3007 RMK AO2
KPGV 061535Z AUTO 23004KT 10SM CLR 22/13 A3007 RMK AO2
KPGV 061515Z AUTO 28003KT 10SM CLR 21/13 A3008 RMK AO2
KPGV 061455Z AUTO 24007KT 10SM CLR 21/13 A3008 RMK AO2
KPGV 061435Z AUTO 27005KT 10SM CLR 20/13 A3009 RMK AO2
KPGV 061415Z AUTO 23007KT 10SM CLR 20/13 A3009 RMK AO2
KPGV 061355Z AUTO 24008KT 10SM CLR 18/13 A3009 RMK AO2
KPGV 061335Z AUTO 24009KT 10SM CLR 17/13 A3009 RMK AO2
KPGV 061315Z AUTO 25008KT 10SM CLR 17/13 A3009 RMK AO2
KPGV 061255Z AUTO 24006KT 10SM CLR 16/12 A3010 RMK AO2
KPGV 061235Z AUTO 23008KT 10SM CLR 15/12 A3010 RMK AO2
KPGV 061215Z AUTO 23009G14KT 10SM CLR 15/12 A3009 RMK AO2
KPGV 061155Z AUTO 23006KT 10SM CLR 13/12 A3010 RMK AO2
KPGV 061135Z AUTO 23005KT 10SM CLR 13/11 A3009 RMK AO2
KPGV 061115Z AUTO 23004KT 10SM CLR 12/11 A3009 RMK AO2
KPGV 061055Z AUTO 20003KT 10SM CLR 12/11 A3008 RMK AO2
KPGV 061035Z AUTO 22003KT 10SM CLR 12/11 A3008 RMK AO2
KPGV 061015Z AUTO 22004KT 10SM CLR 12/11 A3008 RMK AO2
KPGV 060955Z AUTO 23003KT 10SM CLR 11/10 A3008 RMK AO2
KPGV 060935Z AUTO 00000KT 10SM CLR 11/10 A3007 RMK AO2
KPGV 060915Z AUTO 23004KT 10SM CLR 12/10 A3007 RMK AO2
KPGV 060855Z AUTO 22003KT 10SM CLR 12/10 A3007 RMK AO2
KPGV 060835Z AUTO 20005KT 10SM CLR 11/10 A3007 RMK AO2
KPGV 060815Z AUTO 21005KT 10SM CLR 12/10 A3008 RMK AO2
KPGV 060755Z AUTO 22004KT 10SM CLR 12/10 A3008 RMK AO2
KPGV 060735Z AUTO 21004KT 10SM CLR 12/10 A3009 RMK AO2
KPGV 060715Z AUTO 21005KT 10SM CLR 12/10 A3009 RMK AO2
KPGV 060655Z AUTO 21005KT 10SM CLR 12/10 A3009 RMK AO2
KPGV 060635Z AUTO 21004KT 10SM CLR 13/10 A3010 RMK AO2
KPGV 060615Z AUTO 19003KT 10SM CLR 12/10 A3010 RMK AO2
KPGV 060555Z AUTO 21003KT 10SM CLR 12/10 A3011 RMK AO2
KPGV 060535Z AUTO 21003KT 10SM CLR 12/10 A3011 RMK AO2
KPGV 060515Z AUTO 19003KT 10SM CLR 12/10 A3011 RMK AO2
KPGV 060455Z AUTO 20005KT 10SM CLR 12/10 A3011 RMK AO2
KPGV 060435Z AUTO 19005KT 10SM CLR 13/10 A3010 RMK AO2
KPGV 060415Z AUTO 20006KT 10SM CLR 13/09 A3010 RMK AO2
KPGV 060355Z AUTO 19005KT 10SM CLR 13/09 A3011 RMK AO2
KPGV 060335Z AUTO 20007KT 10SM CLR 13/09 A3011 RMK AO2
KPGV 060315Z AUTO 19006KT 10SM CLR 13/09 A3011 RMK AO2
KPGV 060255Z AUTO 19006KT 10SM CLR 15/09 A3010 RMK AO2
KPGV 060235Z AUTO 19007KT 10SM CLR 15/09 A3010 RMK AO2
KPGV 060215Z AUTO 19005KT 10SM CLR 16/08 A3010 RMK AO2
KPGV 060155Z AUTO 17007KT 10SM CLR 16/08 A3009 RMK AO2
KPGV 060135Z AUTO 16007KT 10SM CLR 16/09 A3009 RMK AO2
KPGV 060115Z AUTO 00000KT 10SM CLR 13/10 A3009 RMK AO2
KPGV 060055Z AUTO 00000KT 10SM CLR 13/09 A3009 RMK AO2
KPGV 060035Z AUTO 00000KT 10SM CLR 15/08 A3008 RMK AO2
KPGV 060015Z AUTO 00000KT 10SM CLR 13/08 A3008 RMK AO2
KPGV 052355Z AUTO 00000KT 7SM CLR 17/08 A3007 RMK AO2
KPGV 052315Z AUTO 00000KT 10SM CLR 20/07 A3007 RMK AO2
KPGV 052255Z AUTO 00000KT 10SM CLR 21/06 A3007 RMK AO2
KPGV 052235Z AUTO 25003KT 10SM CLR 21/07 A3007 RMK AO2
KPGV 052215Z AUTO 30003KT 10SM CLR 21/06 A3007 RMK AO2
KPGV 052155Z AUTO 21003KT 10SM CLR 21/06 A3006 RMK AO2
KPGV 052135Z AUTO 17004KT 10SM CLR 22/06 A3006 RMK AO2
KPGV 052115Z AUTO 22004KT 10SM CLR 21/06 A3006 RMK AO2
KPGV 052055Z AUTO 24005KT 10SM CLR 22/06 A3006 RMK AO2
KPGV 052035Z AUTO 00000KT 10SM CLR 21/06 A3007 RMK AO2